Hadley, United Kingdom
Current Conditions -  °F | °C
As of 3:50 AM on Friday 28 Nov 2014 (Local Time) from EGOS Reporting Station
Haze Haze  
Wind Chill: 42°   Ceiling: 400
Heat Index: 46°   Visibility: 2.9mi
Dew Point: 46°   Wind: 8mph
Humidity: 100%   Direction: 90°E
Pressure: 29.59"   Gusts: NA
Location:  52.7°N, 2.48°W
Report Text: EGOS 280350Z AUTO 09007KT 4700 BR OVC004/// 08/08 Q1002
Loading
Personal Weather Stations






























Interactive Weather Map New forecast layout! Learn more

10-Day Weather Forecast

Advertisements
Track Severe Weather on mobile